createdAt,value
2022-11-08T00:00:56.442Z,82.42
2022-11-08T00:03:25.608Z,82.44
2022-11-08T00:06:13.949Z,82.38
2022-11-08T00:09:02.557Z,82.40
2022-11-08T00:11:50.041Z,82.26
2022-11-08T00:14:19.546Z,82.24
2022-11-08T00:16:48.671Z,82.20
2022-11-08T00:19:19.473Z,82.11
2022-11-08T00:21:49.374Z,81.99
2022-11-08T00:24:18.446Z,82.03
2022-11-08T00:26:48.461Z,81.96
2022-11-08T00:29:17.787Z,81.99
2022-11-08T00:31:46.707Z,82.04
2022-11-08T00:34:17.173Z,82.14
2022-11-08T00:36:46.579Z,82.11
2022-11-08T00:39:15.233Z,82.20
2022-11-08T00:41:44.237Z,82.18
2022-11-08T00:44:13.810Z,82.25
2022-11-08T00:46:44.662Z,82.35
2022-11-08T00:49:13.613Z,82.37
2022-11-08T00:51:44.178Z,82.35
2022-11-08T00:54:16.219Z,82.42
2022-11-08T00:56:45.661Z,82.57
2022-11-08T00:59:16.037Z,82.56
2022-11-08T01:01:46.487Z,82.55
2022-11-08T01:04:16.604Z,82.68
2022-11-08T01:06:47.471Z,82.68
2022-11-08T01:09:16.238Z,82.62
2022-11-08T01:11:47.474Z,82.53
2022-11-08T01:14:16.746Z,82.68
2022-11-08T01:16:47.135Z,82.74
2022-11-08T01:19:16.653Z,82.68
2022-11-08T01:21:47.151Z,82.72
2022-11-08T01:24:15.858Z,82.76
2022-11-08T01:26:46.393Z,82.74
2022-11-08T01:29:15.507Z,82.83
2022-11-08T01:31:44.419Z,82.96
2022-11-08T01:34:13.491Z,82.90
2022-11-08T01:36:43.609Z,82.88
2022-11-08T01:39:13.514Z,82.88
2022-11-08T01:41:43.962Z,82.95
2022-11-08T01:44:17.323Z,82.91
2022-11-08T01:46:47.892Z,82.79
2022-11-08T01:49:34.091Z,82.64
2022-11-08T01:52:19.656Z,82.62
2022-11-08T01:55:06.374Z,82.63
2022-11-08T01:57:49.688Z,82.63
2022-11-08T02:00:18.355Z,82.51
2022-11-08T02:02:53.934Z,82.37
2022-11-08T02:05:27.025Z,82.31
2022-11-08T02:08:28.671Z,82.23
2022-11-08T02:10:59.359Z,82.22
2022-11-08T02:13:29.926Z,82.31
2022-11-08T02:15:58.683Z,82.21
2022-11-08T02:18:31.018Z,82.17
2022-11-08T02:21:24.575Z,82.20
2022-11-08T02:23:59.818Z,82.14
2022-11-08T02:26:31.988Z,82.24
2022-11-08T02:29:22.185Z,82.29
2022-11-08T02:31:51.313Z,82.28
2022-11-08T02:34:21.580Z,82.37
2022-11-08T02:36:52.114Z,82.36
2022-11-08T02:39:21.860Z,82.38
2022-11-08T02:41:51.368Z,82.39
2022-11-08T02:44:20.458Z,82.38
2022-11-08T02:46:49.636Z,82.37
2022-11-08T02:49:18.402Z,82.29
2022-11-08T02:51:47.201Z,82.32
2022-11-08T02:54:16.519Z,82.30
2022-11-08T02:56:46.492Z,82.23
2022-11-08T02:59:15.642Z,82.13
2022-11-08T03:01:45.534Z,82.21
2022-11-08T03:04:14.952Z,82.03
2022-11-08T03:06:45.596Z,82.07
2022-11-08T03:09:14.782Z,82.21
2022-11-08T03:11:44.168Z,82.15
2022-11-08T03:14:13.452Z,82.12
2022-11-08T03:16:43.385Z,82.09
2022-11-08T03:19:13.160Z,82.07
2022-11-08T03:21:43.352Z,82.03
2022-11-08T03:24:12.531Z,81.91
2022-11-08T03:26:41.300Z,81.90
2022-11-08T03:29:11.063Z,81.88
2022-11-08T03:31:40.750Z,81.89
2022-11-08T03:34:10.871Z,81.95
2022-11-08T03:36:39.728Z,81.90
2022-11-08T03:39:08.684Z,81.90
2022-11-08T03:41:37.714Z,82.04
2022-11-08T03:44:06.763Z,82.11
2022-11-08T03:46:37.470Z,82.35
2022-11-08T03:49:06.736Z,82.56
2022-11-08T03:51:35.990Z,82.76
2022-11-08T03:54:05.290Z,82.86
2022-11-08T03:56:35.889Z,83.10
2022-11-08T03:59:04.810Z,83.21
2022-11-08T04:01:33.856Z,83.30
2022-11-08T04:04:03.879Z,83.54
2022-11-08T04:06:32.977Z,83.83
2022-11-08T04:09:02.504Z,84.08
2022-11-08T04:11:49.952Z,84.17
2022-11-08T04:14:38.927Z,83.97
2022-11-08T04:17:09.487Z,84.08
2022-11-08T04:19:57.283Z,83.99
2022-11-08T04:22:26.295Z,84.14
2022-11-08T04:24:55.872Z,84.23
2022-11-08T04:27:24.409Z,84.15
2022-11-08T04:29:54.746Z,84.13
2022-11-08T04:32:23.563Z,84.23
2022-11-08T04:34:52.676Z,84.28
2022-11-08T04:37:23.633Z,84.46
2022-11-08T04:39:53.024Z,84.48
2022-11-08T04:42:22.303Z,84.53
2022-11-08T04:44:52.017Z,84.52
2022-11-08T04:47:21.000Z,84.65
2022-11-08T04:49:50.074Z,84.67
2022-11-08T04:52:18.956Z,84.54
2022-11-08T04:54:48.538Z,84.62
2022-11-08T04:57:18.649Z,84.66
2022-11-08T04:59:48.172Z,84.71
2022-11-08T05:02:17.186Z,84.75
2022-11-08T05:04:46.451Z,84.68
2022-11-08T05:07:15.655Z,84.94
2022-11-08T05:09:46.751Z,85.37
2022-11-08T05:12:18.090Z,85.78
2022-11-08T05:14:49.519Z,86.07
2022-11-08T05:17:19.595Z,86.46
2022-11-08T05:20:08.205Z,86.89
2022-11-08T05:22:56.428Z,87.11
2022-11-08T05:25:26.664Z,87.38
2022-11-08T05:27:56.449Z,87.67
2022-11-08T05:30:25.723Z,87.89
2022-11-08T05:32:56.787Z,88.12
2022-11-08T05:35:26.648Z,88.36
2022-11-08T05:37:56.319Z,88.48
2022-11-08T05:40:29.424Z,88.62
2022-11-08T05:42:57.397Z,88.68
2022-11-08T05:45:26.377Z,88.90
2022-11-08T05:47:59.223Z,89.08
2022-11-08T05:50:28.992Z,89.31
2022-11-08T05:52:59.939Z,89.52
2022-11-08T05:55:30.255Z,89.63
2022-11-08T05:57:59.453Z,89.72
2022-11-08T06:00:29.653Z,89.88
2022-11-08T06:02:58.890Z,89.96
2022-11-08T06:05:28.729Z,90.08
2022-11-08T06:07:57.487Z,90.21
2022-11-08T06:10:27.023Z,90.23
2022-11-08T06:13:01.611Z,90.19
2022-11-08T06:15:31.215Z,90.14
2022-11-08T06:18:04.540Z,90.15
2022-11-08T06:20:33.479Z,90.30
2022-11-08T06:23:02.727Z,90.39
2022-11-08T06:25:31.928Z,90.44
2022-11-08T06:28:01.813Z,90.49
2022-11-08T06:30:30.938Z,90.40
2022-11-08T06:33:00.324Z,90.54
2022-11-08T06:35:30.212Z,90.61
2022-11-08T06:38:01.364Z,90.50
2022-11-08T06:40:33.140Z,90.49
2022-11-08T06:43:02.633Z,90.58
2022-11-08T06:45:33.146Z,90.59
2022-11-08T06:48:03.979Z,90.50
2022-11-08T06:50:34.070Z,90.65
2022-11-08T06:53:07.070Z,90.58
2022-11-08T06:55:38.422Z,90.74
2022-11-08T06:58:07.252Z,90.76
2022-11-08T07:00:36.971Z,90.86
2022-11-08T07:03:06.914Z,90.86
2022-11-08T07:05:37.383Z,90.90
2022-11-08T07:08:06.714Z,90.89
2022-11-08T07:10:36.633Z,90.87
2022-11-08T07:13:10.292Z,90.84
2022-11-08T07:15:41.463Z,91.00
2022-11-08T07:18:13.124Z,91.00
2022-11-08T07:20:43.349Z,91.08
2022-11-08T07:23:13.147Z,91.18
2022-11-08T07:25:46.620Z,91.19
2022-11-08T07:28:18.301Z,91.25
2022-11-08T07:30:48.422Z,91.30
2022-11-08T07:33:18.928Z,91.24
2022-11-08T07:35:49.919Z,91.28
2022-11-08T07:38:19.985Z,91.22
2022-11-08T07:40:51.715Z,91.32
2022-11-08T07:43:21.264Z,91.33
2022-11-08T07:45:56.505Z,91.39
2022-11-08T07:48:25.630Z,91.37
2022-11-08T07:50:55.081Z,91.37
2022-11-08T07:53:24.584Z,91.13
2022-11-08T07:55:55.010Z,91.18
2022-11-08T07:58:24.513Z,91.21
2022-11-08T08:00:53.965Z,91.27
2022-11-08T08:03:23.658Z,91.27
2022-11-08T08:05:59.483Z,91.24
2022-11-08T08:08:26.121Z,91.26
2022-11-08T08:11:02.527Z,91.24
2022-11-08T08:13:32.519Z,91.29
2022-11-08T08:16:02.527Z,91.47
2022-11-08T08:18:33.065Z,91.28
2022-11-08T08:21:02.248Z,91.42
2022-11-08T08:23:33.061Z,91.61
2022-11-08T08:26:03.162Z,91.71
2022-11-08T08:28:31.856Z,91.90
2022-11-08T08:31:01.426Z,91.88
2022-11-08T08:33:30.811Z,91.73
2022-11-08T08:36:01.621Z,91.73
2022-11-08T08:38:32.493Z,91.80
2022-11-08T08:41:01.699Z,91.93
2022-11-08T08:43:34.118Z,92.01
2022-11-08T08:46:05.260Z,92.13
2022-11-08T08:48:35.715Z,92.22
2022-11-08T08:51:04.915Z,92.25
2022-11-08T08:53:34.168Z,92.20
2022-11-08T08:56:07.299Z,92.25
2022-11-08T08:58:40.582Z,92.29
2022-11-08T09:03:45.158Z,92.83
2022-11-08T09:06:14.322Z,93.18
2022-11-08T09:08:44.552Z,93.19
2022-11-08T09:11:13.174Z,93.40
2022-11-08T09:13:42.332Z,93.58
2022-11-08T09:16:13.220Z,93.63
2022-11-08T09:18:41.854Z,93.38
2022-11-08T09:21:12.309Z,93.59
2022-11-08T09:23:42.147Z,93.86
2022-11-08T09:26:12.199Z,93.97
2022-11-08T09:28:41.025Z,94.08
2022-11-08T09:31:11.552Z,94.28
2022-11-08T09:33:41.698Z,94.32
2022-11-08T09:36:13.421Z,94.44
2022-11-08T09:38:42.590Z,94.54
2022-11-08T09:41:31.083Z,94.76
2022-11-08T09:44:23.014Z,95.02
2022-11-08T09:47:15.149Z,95.15
2022-11-08T09:50:24.680Z,95.28
2022-11-08T09:53:19.349Z,95.34
2022-11-08T09:56:15.422Z,95.29
2022-11-08T09:58:49.563Z,95.46
2022-11-08T10:01:19.558Z,95.43
2022-11-08T10:03:51.740Z,95.37
2022-11-08T10:07:03.209Z,95.41
2022-11-08T10:09:56.474Z,95.34
2022-11-08T10:12:43.852Z,95.11
2022-11-08T10:15:22.160Z,95.08
2022-11-08T10:18:20.487Z,95.02
2022-11-08T10:21:04.679Z,95.04
2022-11-08T10:23:44.500Z,95.05
2022-11-08T10:26:25.732Z,94.97
2022-11-08T10:29:08.521Z,94.89
2022-11-08T10:31:38.288Z,94.84
2022-11-08T10:34:15.412Z,94.63
2022-11-08T10:36:49.144Z,94.62
2022-11-08T10:39:27.808Z,94.62
2022-11-08T10:42:04.339Z,94.51
2022-11-08T10:44:34.908Z,94.37
2022-11-08T10:47:06.484Z,94.29
2022-11-08T10:49:38.948Z,94.30
2022-11-08T10:52:21.671Z,94.25
2022-11-08T10:55:01.179Z,94.03
2022-11-08T10:57:47.941Z,93.90
2022-11-08T11:00:29.691Z,93.67
2022-11-08T11:03:08.371Z,93.67
2022-11-08T11:05:44.408Z,93.59
2022-11-08T11:08:15.396Z,93.61
2022-11-08T11:10:46.618Z,93.57
2022-11-08T11:16:04.138Z,93.35
2022-11-08T11:18:48.159Z,93.29
2022-11-08T11:21:22.712Z,93.14
2022-11-08T11:24:00.190Z,92.99
2022-11-08T11:26:34.148Z,92.83
2022-11-08T11:29:17.157Z,92.67
2022-11-08T11:31:49.298Z,92.39
2022-11-08T11:34:23.373Z,92.39
2022-11-08T11:37:13.393Z,92.39
2022-11-08T11:40:12.273Z,92.29
2022-11-08T11:43:12.382Z,92.33
2022-11-08T11:46:00.503Z,92.17
2022-11-08T11:48:32.153Z,91.89
2022-11-08T11:51:03.567Z,91.70
2022-11-08T11:53:40.243Z,91.58
2022-11-08T11:56:44.697Z,91.36
2022-11-08T11:59:46.407Z,91.25
2022-11-08T12:02:51.328Z,91.23
2022-11-08T12:06:05.803Z,91.03
2022-11-08T12:09:02.288Z,90.85
2022-11-08T12:11:39.202Z,90.71
2022-11-08T12:14:45.051Z,90.64
2022-11-08T12:17:53.110Z,90.46
2022-11-08T12:20:55.402Z,90.40
2022-11-08T12:23:53.929Z,90.60
2022-11-08T12:26:58.445Z,90.58
2022-11-08T12:29:47.700Z,90.48
2022-11-08T12:32:24.867Z,90.32
2022-11-08T12:35:00.210Z,90.23
2022-11-08T12:37:55.629Z,90.11
2022-11-08T12:40:46.729Z,90.10
2022-11-08T12:43:38.773Z,90.01
2022-11-08T12:46:18.332Z,89.81
2022-11-08T12:49:10.192Z,89.72
2022-11-08T12:51:52.972Z,89.70
2022-11-08T12:54:41.576Z,89.71
2022-11-08T12:57:13.345Z,89.58
2022-11-08T13:00:09.917Z,89.59
2022-11-08T13:02:42.327Z,89.64
2022-11-08T13:05:30.790Z,89.63
2022-11-08T13:08:16.814Z,89.60
2022-11-08T13:10:52.062Z,89.62
2022-11-08T13:13:52.742Z,89.60
2022-11-08T13:16:28.450Z,89.51
2022-11-08T13:18:58.570Z,89.65
2022-11-08T13:21:44.855Z,89.76
2022-11-08T13:31:02.651Z,89.76
2022-11-08T13:33:32.389Z,89.81
2022-11-08T13:36:30.059Z,89.81
2022-11-08T13:39:30.560Z,89.87
2022-11-08T13:42:26.722Z,89.86
2022-11-08T13:55:59.704Z,90.34
2022-11-08T13:58:35.875Z,90.40
2022-11-08T14:01:09.360Z,90.65
2022-11-08T14:03:55.347Z,90.79
2022-11-08T14:06:56.040Z,90.84
2022-11-08T14:09:57.044Z,90.76
2022-11-08T14:12:57.974Z,90.92
2022-11-08T14:15:37.964Z,90.88
2022-11-08T14:18:30.835Z,90.95
2022-11-08T14:21:08.537Z,91.02
2022-11-08T14:23:48.447Z,91.07
2022-11-08T14:26:23.106Z,91.09
2022-11-08T14:28:54.410Z,91.13
2022-11-08T14:31:33.125Z,91.20
2022-11-08T14:34:02.707Z,91.24
2022-11-08T14:36:32.873Z,91.34
2022-11-08T14:39:17.783Z,91.37
2022-11-08T14:41:48.833Z,91.39
2022-11-08T14:44:19.858Z,91.37
2022-11-08T14:46:49.397Z,91.44
2022-11-08T14:49:36.314Z,91.48
2022-11-08T14:52:14.965Z,91.59
2022-11-08T14:54:46.717Z,91.63
2022-11-08T14:57:38.244Z,91.73
2022-11-08T15:00:20.848Z,91.74
2022-11-08T15:03:06.984Z,91.76
2022-11-08T15:05:47.455Z,91.80
2022-11-08T15:08:34.613Z,91.94
2022-11-08T15:11:07.944Z,91.99
2022-11-08T15:13:48.540Z,91.92
2022-11-08T15:16:18.616Z,91.90
2022-11-08T15:18:47.960Z,91.94
2022-11-08T15:21:58.160Z,92.04
2022-11-08T15:24:46.958Z,92.20
2022-11-08T15:27:25.337Z,92.21
2022-11-08T15:30:13.655Z,92.29
2022-11-08T15:32:45.708Z,92.31
2022-11-08T15:35:34.198Z,92.42
2022-11-08T15:38:09.576Z,92.39
2022-11-08T15:40:45.048Z,92.47
2022-11-08T15:43:35.094Z,92.45
2022-11-08T15:46:05.878Z,92.52
2022-11-08T15:48:41.809Z,92.61
2022-11-08T15:51:17.043Z,92.81
2022-11-08T15:53:48.850Z,92.97
2022-11-08T15:56:17.744Z,93.17
2022-11-08T15:58:47.083Z,93.30
2022-11-08T16:01:20.601Z,93.54
2022-11-08T16:03:49.943Z,93.82
2022-11-08T16:06:20.336Z,93.93
2022-11-08T16:08:49.334Z,94.01
2022-11-08T16:11:34.154Z,94.01
2022-11-08T16:14:19.860Z,94.00
2022-11-08T16:16:49.900Z,94.01
2022-11-08T16:19:23.350Z,94.02
2022-11-08T16:21:53.287Z,94.20
2022-11-08T16:24:35.020Z,94.28
2022-11-08T16:27:11.831Z,94.33
2022-11-08T16:29:42.717Z,94.35
2022-11-08T16:32:26.268Z,94.45
2022-11-08T16:35:13.652Z,94.55
2022-11-08T16:37:46.095Z,94.68
2022-11-08T16:40:36.177Z,94.76
2022-11-08T16:43:16.398Z,94.82
2022-11-08T16:48:18.622Z,94.86
2022-11-08T16:50:47.973Z,94.87
2022-11-08T16:53:19.341Z,94.79
2022-11-08T16:55:48.102Z,94.68
2022-11-08T16:58:17.179Z,94.49
2022-11-08T17:00:46.264Z,94.56
2022-11-08T17:03:21.255Z,94.57
2022-11-08T17:05:50.795Z,94.43
2022-11-08T17:08:20.812Z,94.28
2022-11-08T17:10:50.142Z,94.11
2022-11-08T17:13:21.265Z,94.07
2022-11-08T17:15:51.098Z,93.99
2022-11-08T17:18:21.556Z,93.99
2022-11-08T17:20:53.608Z,93.94
2022-11-08T17:23:23.464Z,93.96
2022-11-08T17:25:52.584Z,93.76
2022-11-08T17:28:21.669Z,93.55
2022-11-08T17:30:51.285Z,93.58
2022-11-08T17:33:20.747Z,93.61
2022-11-08T17:35:50.380Z,93.62
2022-11-08T17:38:20.491Z,93.72
2022-11-08T17:40:50.292Z,93.79
2022-11-08T17:43:20.786Z,93.84
2022-11-08T17:45:51.658Z,93.93
2022-11-08T17:48:20.273Z,93.90
2022-11-08T17:50:48.874Z,93.89
2022-11-08T17:53:18.025Z,93.96
2022-11-08T17:56:01.065Z,94.05
2022-11-08T17:58:32.499Z,94.21
2022-11-08T18:01:04.893Z,94.36
2022-11-08T18:03:35.412Z,94.43
2022-11-08T18:06:09.607Z,94.55
2022-11-08T18:08:38.149Z,94.73
2022-11-08T18:11:08.454Z,94.91
2022-11-08T18:13:38.054Z,94.88
2022-11-08T18:16:14.534Z,94.94
2022-11-08T18:18:46.833Z,95.02
2022-11-08T18:21:17.292Z,95.13
2022-11-08T18:23:47.588Z,95.19
2022-11-08T18:26:17.156Z,95.33
2022-11-08T18:28:45.744Z,95.41
2022-11-08T18:31:17.136Z,95.49
2022-11-08T18:33:47.318Z,95.55
2022-11-08T18:36:21.496Z,95.67
2022-11-08T18:38:52.073Z,95.67
2022-11-08T18:41:24.954Z,95.68
2022-11-08T18:43:54.142Z,95.74
2022-11-08T18:46:24.889Z,95.86
2022-11-08T18:48:54.062Z,95.78
2022-11-08T18:51:23.901Z,95.78
2022-11-08T18:53:53.061Z,95.61
2022-11-08T18:56:22.793Z,95.53
2022-11-08T18:58:51.517Z,95.53
2022-11-08T19:01:20.478Z,95.71
2022-11-08T19:03:49.397Z,95.77
2022-11-08T19:06:20.506Z,95.88
2022-11-08T19:08:49.228Z,95.91
2022-11-08T19:11:19.905Z,95.89
2022-11-08T19:13:49.953Z,95.93
2022-11-08T19:16:19.864Z,95.96
2022-11-08T19:18:51.596Z,95.91
2022-11-08T19:21:23.859Z,95.88
2022-11-08T19:23:55.111Z,95.87
2022-11-08T19:26:25.219Z,95.87
2022-11-08T19:28:54.813Z,95.90
2022-11-08T19:31:24.749Z,95.95
2022-11-08T19:33:53.960Z,96.09
2022-11-08T19:36:25.048Z,96.04
2022-11-08T19:38:55.132Z,95.91
2022-11-08T19:41:26.867Z,95.87
2022-11-08T19:43:56.678Z,95.80
2022-11-08T19:46:29.378Z,95.84
2022-11-08T19:49:00.410Z,95.88
2022-11-08T19:51:33.031Z,95.90
2022-11-08T19:54:07.740Z,95.92
2022-11-08T19:57:03.680Z,95.82
2022-11-08T19:59:08.720Z,95.92
2022-11-08T20:01:39.596Z,95.93
2022-11-08T20:04:10.617Z,95.81
2022-11-08T20:06:40.181Z,95.71
2022-11-08T20:09:09.648Z,95.65
2022-11-08T20:11:43.019Z,95.62
2022-11-08T20:14:13.132Z,95.46
2022-11-08T20:16:43.214Z,95.49
2022-11-08T20:19:16.248Z,95.47
2022-11-08T20:21:45.907Z,95.45
2022-11-08T20:24:15.054Z,95.45
2022-11-08T20:26:45.524Z,95.37
2022-11-08T20:29:14.516Z,95.41
2022-11-08T20:31:44.921Z,95.40
2022-11-08T20:34:13.871Z,95.31
2022-11-08T20:36:45.124Z,95.23
2022-11-08T20:39:15.307Z,95.09
2022-11-08T20:41:45.071Z,94.88
2022-11-08T20:44:14.916Z,94.92
2022-11-08T20:46:44.177Z,94.89
2022-11-08T20:49:13.491Z,94.96
2022-11-08T20:51:42.373Z,94.83
2022-11-08T20:54:11.798Z,94.66
2022-11-08T20:56:42.521Z,94.64
2022-11-08T20:59:12.137Z,94.72
2022-11-08T21:01:42.235Z,94.69
2022-11-08T21:04:11.057Z,94.57
2022-11-08T21:06:41.305Z,94.60
2022-11-08T21:09:34.437Z,94.59
2022-11-08T21:11:43.911Z,94.49
2022-11-08T21:14:12.790Z,94.48
2022-11-08T21:17:14.735Z,94.35
2022-11-08T21:19:16.966Z,94.17
2022-11-08T21:21:48.448Z,94.17
2022-11-08T21:24:19.072Z,94.04
2022-11-08T21:26:48.400Z,94.12
2022-11-08T21:29:17.314Z,94.10
2022-11-08T21:31:47.274Z,94.03
2022-11-08T21:34:16.897Z,94.12
2022-11-08T21:36:45.629Z,94.15
2022-11-08T21:39:14.253Z,94.16
2022-11-08T21:41:43.581Z,94.18
2022-11-08T21:44:12.060Z,94.12
2022-11-08T21:46:40.681Z,94.15
2022-11-08T21:49:12.099Z,94.14
2022-11-08T21:51:40.765Z,94.01
2022-11-08T21:54:10.716Z,94.03
2022-11-08T21:56:39.524Z,94.09
2022-11-08T21:59:10.887Z,93.99
2022-11-08T22:01:39.679Z,93.84
2022-11-08T22:04:08.659Z,93.71
2022-11-08T22:06:41.436Z,93.64
2022-11-08T22:09:10.277Z,93.58
2022-11-08T22:11:39.333Z,93.58
2022-11-08T22:14:09.867Z,93.60
2022-11-08T22:16:40.555Z,93.63
2022-11-08T22:19:11.602Z,93.64
2022-11-08T22:21:42.921Z,93.70
2022-11-08T22:24:17.495Z,93.71
2022-11-08T22:26:47.810Z,93.63
2022-11-08T22:29:18.314Z,93.81
2022-11-08T22:31:47.601Z,93.81
2022-11-08T22:34:17.783Z,93.74
2022-11-08T22:36:47.658Z,93.79
2022-11-08T22:39:20.411Z,93.87
2022-11-08T22:41:51.632Z,93.93
2022-11-08T22:44:22.204Z,93.95
2022-11-08T22:46:50.958Z,93.96
2022-11-08T22:49:19.660Z,93.80
2022-11-08T22:51:48.632Z,93.84
2022-11-08T22:54:17.182Z,93.91
2022-11-08T22:56:45.972Z,93.84
2022-11-08T22:59:14.694Z,93.77
2022-11-08T23:01:43.251Z,93.77
2022-11-08T23:04:12.042Z,93.73
2022-11-08T23:06:42.401Z,93.73
2022-11-08T23:09:11.206Z,93.82
2022-11-08T23:11:58.201Z,93.87
2022-11-08T23:14:45.157Z,93.96
2022-11-08T23:17:14.183Z,93.93
2022-11-08T23:20:01.392Z,93.90
2022-11-08T23:22:51.821Z,93.93
2022-11-08T23:25:20.803Z,93.97
2022-11-08T23:28:09.652Z,94.06
2022-11-08T23:30:58.774Z,94.08
2022-11-08T23:33:27.162Z,94.10
2022-11-08T23:36:11.126Z,94.05
2022-11-08T23:38:41.274Z,93.99
2022-11-08T23:41:29.044Z,93.97
2022-11-08T23:44:18.346Z,94.05
2022-11-08T23:46:47.312Z,94.10
2022-11-08T23:49:16.143Z,94.14
2022-11-08T23:51:45.240Z,94.21
2022-11-08T23:54:15.346Z,94.14
2022-11-08T23:56:44.695Z,94.10
2022-11-08T23:59:15.670Z,93.99
